createdAt,value
2022-09-21T00:01:07.578Z,2.03
2022-09-21T00:03:35.668Z,2.00
2022-09-21T00:06:06.154Z,2.33
2022-09-21T00:08:34.321Z,2.20
2022-09-21T00:11:03.395Z,2.13
2022-09-21T00:13:33.381Z,2.17
2022-09-21T00:16:01.464Z,2.07
2022-09-21T00:18:29.719Z,2.40
2022-09-21T00:20:57.517Z,2.30
2022-09-21T00:23:26.965Z,2.03
2022-09-21T00:26:04.429Z,2.27
2022-09-21T00:28:32.249Z,2.20
2022-09-21T00:31:03.373Z,2.30
2022-09-21T00:33:31.329Z,2.60
2022-09-21T00:36:04.796Z,2.30
2022-09-21T00:38:35.111Z,2.30
2022-09-21T00:41:03.508Z,2.67
2022-09-21T00:43:34.371Z,2.37
2022-09-21T00:46:06.023Z,2.20
2022-09-21T00:48:34.849Z,1.90
2022-09-21T00:51:05.992Z,1.90
2022-09-21T00:53:35.610Z,2.33
2022-09-21T00:56:05.766Z,2.17
2022-09-21T00:58:38.098Z,2.23
2022-09-21T01:01:06.162Z,2.00
2022-09-21T01:03:34.495Z,1.90
2022-09-21T01:06:02.357Z,1.90
2022-09-21T01:08:31.031Z,1.97
2022-09-21T01:11:27.702Z,1.87
2022-09-21T01:14:16.163Z,1.97
2022-09-21T01:16:53.186Z,2.37
2022-09-21T01:19:39.093Z,1.90
2022-09-21T01:22:15.065Z,1.77
2022-09-21T01:24:55.258Z,2.00
2022-09-21T01:27:50.412Z,1.90
2022-09-21T01:30:22.258Z,1.70
2022-09-21T01:32:56.700Z,2.10
2022-09-21T01:35:29.397Z,1.83
2022-09-21T01:38:00.432Z,1.97
2022-09-21T01:40:35.590Z,2.10
2022-09-21T01:43:06.613Z,2.27
2022-09-21T01:45:40.204Z,1.83
2022-09-21T01:48:09.207Z,2.03
2022-09-21T01:50:42.397Z,2.30
2022-09-21T01:53:16.479Z,1.97
2022-09-21T01:55:49.896Z,1.90
2022-09-21T01:58:21.774Z,1.90
2022-09-21T02:00:55.639Z,2.20
2022-09-21T02:03:28.332Z,1.73
2022-09-21T02:05:58.196Z,2.03
2022-09-21T02:08:27.704Z,2.10
2022-09-21T02:10:56.788Z,1.87
2022-09-21T02:13:27.576Z,1.90
2022-09-21T02:16:12.454Z,1.83
2022-09-21T02:18:54.932Z,2.07
2022-09-21T02:21:29.649Z,2.33
2022-09-21T02:24:09.500Z,2.00
2022-09-21T02:26:44.737Z,1.83
2022-09-21T02:29:21.285Z,2.17
2022-09-21T02:31:56.387Z,1.80
2022-09-21T02:34:33.307Z,1.83
2022-09-21T02:37:08.401Z,1.83
2022-09-21T02:39:43.948Z,2.07
2022-09-21T02:42:16.347Z,2.30
2022-09-21T02:44:48.745Z,2.70
2022-09-21T02:47:23.214Z,2.70
2022-09-21T02:49:54.990Z,2.70
2022-09-21T02:52:23.362Z,2.80
2022-09-21T02:54:54.349Z,2.83
2022-09-21T02:57:24.520Z,2.80
2022-09-21T02:59:53.275Z,3.00
2022-09-21T03:02:22.407Z,2.37
2022-09-21T03:04:50.565Z,2.50
2022-09-21T03:07:18.989Z,2.20
2022-09-21T03:09:46.806Z,2.13
2022-09-21T03:12:14.689Z,2.17
2022-09-21T03:14:42.824Z,2.33
2022-09-21T03:17:10.658Z,2.00
2022-09-21T03:19:40.617Z,2.20
2022-09-21T03:22:08.403Z,2.40
2022-09-21T03:24:48.020Z,2.00
2022-09-21T03:27:16.819Z,2.30
2022-09-21T03:29:44.832Z,1.93
2022-09-21T03:32:13.757Z,2.37
2022-09-21T03:34:43.171Z,2.00
2022-09-21T03:37:11.709Z,2.20
2022-09-21T03:39:39.518Z,1.93
2022-09-21T03:42:09.078Z,2.00
2022-09-21T03:44:38.147Z,2.00
2022-09-21T03:47:06.654Z,2.17
2022-09-21T03:49:35.013Z,2.13
2022-09-21T03:52:04.748Z,2.10
2022-09-21T03:54:32.593Z,2.33
2022-09-21T03:57:00.416Z,2.20
2022-09-21T03:59:28.307Z,3.30
2022-09-21T04:01:56.100Z,4.30
2022-09-21T04:04:23.997Z,5.90
2022-09-21T04:06:51.954Z,3.47
2022-09-21T04:09:21.105Z,3.10
2022-09-21T04:11:49.148Z,2.70
2022-09-21T04:14:17.594Z,2.90
2022-09-21T04:16:45.408Z,2.17
2022-09-21T04:19:13.492Z,2.63
2022-09-21T04:21:41.318Z,2.60
2022-09-21T04:24:09.171Z,3.47
2022-09-21T04:26:39.624Z,6.43
2022-09-21T04:29:07.516Z,5.57
2022-09-21T04:31:35.460Z,4.57
2022-09-21T04:34:03.265Z,2.70
2022-09-21T04:36:36.423Z,2.37
2022-09-21T04:39:05.611Z,2.63
2022-09-21T04:41:34.124Z,2.23
2022-09-21T04:44:03.648Z,2.53
2022-09-21T04:46:31.614Z,2.30
2022-09-21T04:48:59.530Z,10.50
2022-09-21T04:51:27.454Z,11.40
2022-09-21T04:53:55.291Z,4.03
2022-09-21T04:56:23.125Z,2.30
2022-09-21T04:58:50.994Z,2.50
2022-09-21T05:01:20.260Z,2.20
2022-09-21T05:03:48.206Z,2.20
2022-09-21T05:06:16.109Z,2.47
2022-09-21T05:09:01.360Z,4.63
2022-09-21T05:11:29.206Z,5.63
2022-09-21T05:13:57.092Z,4.60
2022-09-21T05:16:26.398Z,3.57
2022-09-21T05:18:55.944Z,3.30
2022-09-21T05:21:24.129Z,3.70
2022-09-21T05:23:52.009Z,3.17
2022-09-21T05:26:20.112Z,3.30
2022-09-21T05:28:48.579Z,3.17
2022-09-21T05:31:42.134Z,2.80
2022-09-21T05:34:39.309Z,2.80
2022-09-21T05:37:15.123Z,2.67
2022-09-21T05:39:43.544Z,2.40
2022-09-21T05:42:12.621Z,7.90
2022-09-21T05:44:40.963Z,5.67
2022-09-21T05:47:24.000Z,3.20
2022-09-21T05:50:01.516Z,2.13
2022-09-21T05:52:35.635Z,2.60
2022-09-21T05:55:10.641Z,2.50
2022-09-21T05:57:46.773Z,3.13
2022-09-21T06:00:18.800Z,2.40
2022-09-21T06:03:16.918Z,2.23
2022-09-21T06:05:45.860Z,2.37
2022-09-21T06:08:13.720Z,2.47
2022-09-21T06:10:41.742Z,2.20
2022-09-21T06:13:09.574Z,1.97
2022-09-21T06:15:38.300Z,2.37
2022-09-21T06:18:07.984Z,2.13
2022-09-21T06:20:36.109Z,2.40
2022-09-21T06:23:04.019Z,2.60
2022-09-21T06:25:32.034Z,2.23
2022-09-21T06:28:04.382Z,2.73
2022-09-21T06:30:33.191Z,2.67
2022-09-21T06:33:02.055Z,2.63
2022-09-21T06:35:32.347Z,2.50
2022-09-21T06:38:00.448Z,2.90
2022-09-21T06:40:28.864Z,2.47
2022-09-21T06:42:58.574Z,2.47
2022-09-21T06:45:26.848Z,2.87
2022-09-21T06:47:54.738Z,2.57
2022-09-21T06:50:22.979Z,2.97
2022-09-21T06:52:52.209Z,2.97
2022-09-21T06:55:20.082Z,3.07
2022-09-21T06:57:48.065Z,2.70
2022-09-21T07:00:16.475Z,2.90
2022-09-21T07:02:45.583Z,2.83
2022-09-21T07:05:14.182Z,3.07
2022-09-21T07:07:41.987Z,2.93
2022-09-21T07:10:15.912Z,3.00
2022-09-21T07:12:46.422Z,3.10
2022-09-21T07:15:15.415Z,3.40
2022-09-21T07:17:51.691Z,3.33
2022-09-21T07:20:20.033Z,3.20
2022-09-21T07:22:47.894Z,3.97
2022-09-21T07:25:17.363Z,3.47
2022-09-21T07:27:45.240Z,3.53
2022-09-21T07:30:13.518Z,3.40
2022-09-21T07:32:41.389Z,5.00
2022-09-21T07:35:09.566Z,4.97
2022-09-21T07:37:37.412Z,4.20
2022-09-21T07:40:06.262Z,4.20
2022-09-21T07:42:35.522Z,4.10
2022-09-21T07:45:04.372Z,3.67
2022-09-21T07:47:32.691Z,4.10
2022-09-21T07:50:00.635Z,3.60
2022-09-21T07:52:28.904Z,3.83
2022-09-21T07:54:56.808Z,3.30
2022-09-21T07:57:41.915Z,3.77
2022-09-21T08:55:19.815Z,1.60
2022-09-21T09:00:17.724Z,1.45
2022-09-21T09:03:10.403Z,1.40
2022-09-21T09:05:47.927Z,1.37
2022-09-21T09:08:33.794Z,1.10
2022-09-21T09:11:13.172Z,1.00
2022-09-21T09:14:00.930Z,1.10
2022-09-21T09:16:37.055Z,1.00
2022-09-21T09:19:19.415Z,1.17
2022-09-21T09:21:48.743Z,0.90
2022-09-21T09:24:20.523Z,1.00
2022-09-21T09:26:53.652Z,1.87
2022-09-21T09:29:29.730Z,1.53
2022-09-21T09:32:00.272Z,1.03
2022-09-21T09:34:33.178Z,1.00
2022-09-21T09:37:11.129Z,0.80
2022-09-21T09:39:39.632Z,0.97
2022-09-21T09:42:34.408Z,0.80
2022-09-21T09:45:21.944Z,1.00
2022-09-21T09:48:13.015Z,0.70
2022-09-21T09:50:42.731Z,0.70
2022-09-21T09:53:15.299Z,0.83
2022-09-21T09:55:46.748Z,0.80
2022-09-21T09:58:19.747Z,0.87
2022-09-21T10:00:48.930Z,0.70
2022-09-21T10:03:19.399Z,0.80
2022-09-21T10:05:47.546Z,0.90
2022-09-21T10:08:43.006Z,0.60
2022-09-21T10:11:12.813Z,0.63
2022-09-21T10:13:42.350Z,0.80
2022-09-21T10:16:15.163Z,0.80
2022-09-21T10:18:48.431Z,0.80
2022-09-21T10:21:22.170Z,1.00
2022-09-21T10:23:55.017Z,1.50
2022-09-21T10:26:23.245Z,0.70
2022-09-21T10:28:59.351Z,0.80
2022-09-21T10:31:29.886Z,0.93
2022-09-21T10:34:08.418Z,0.70
2022-09-21T10:36:37.760Z,0.63
2022-09-21T10:39:22.635Z,0.73
2022-09-21T10:41:53.542Z,0.70
2022-09-21T10:44:23.818Z,0.70
2022-09-21T10:46:52.694Z,0.70
2022-09-21T10:49:25.712Z,0.70
2022-09-21T10:51:58.404Z,0.90
2022-09-21T10:54:30.612Z,0.70
2022-09-21T10:57:03.248Z,0.80
2022-09-21T10:59:32.953Z,0.70
2022-09-21T11:02:02.930Z,1.10
2022-09-21T11:04:40.216Z,1.00
2022-09-21T11:07:18.724Z,0.70
2022-09-21T11:09:55.415Z,0.87
2022-09-21T11:12:42.365Z,0.60
2022-09-21T11:15:21.767Z,0.70
2022-09-21T11:17:53.246Z,0.73
2022-09-21T11:20:29.241Z,0.57
2022-09-21T11:23:05.189Z,0.60
2022-09-21T11:25:44.228Z,0.70
2022-09-21T11:28:17.743Z,0.60
2022-09-21T11:31:08.158Z,0.70
2022-09-21T11:33:55.688Z,0.63
2022-09-21T11:36:34.351Z,0.70
2022-09-21T11:39:07.395Z,0.50
2022-09-21T11:42:05.382Z,0.60
2022-09-21T11:44:49.210Z,0.57
2022-09-21T11:47:33.320Z,0.60
2022-09-21T11:50:30.379Z,0.80
2022-09-21T11:53:14.374Z,0.70
2022-09-21T11:56:01.214Z,0.60
2022-09-21T11:58:39.569Z,1.60
2022-09-21T12:01:20.054Z,4.10
2022-09-21T12:04:16.934Z,0.70
2022-09-21T12:06:54.697Z,0.60
2022-09-21T12:09:55.010Z,0.60
2022-09-21T12:12:28.171Z,0.60
2022-09-21T12:15:04.789Z,0.60
2022-09-21T12:17:44.543Z,0.50
2022-09-21T12:20:18.175Z,0.70
2022-09-21T12:22:48.324Z,0.40
2022-09-21T12:25:19.543Z,0.50
2022-09-21T12:27:51.734Z,0.50
2022-09-21T12:30:23.072Z,0.50
2022-09-21T12:32:57.925Z,0.60
2022-09-21T12:35:31.627Z,0.43
2022-09-21T12:38:05.043Z,0.60
2022-09-21T12:40:39.790Z,0.60
2022-09-21T12:43:18.009Z,0.40
2022-09-21T12:45:53.445Z,0.60
2022-09-21T12:50:56.926Z,0.57
2022-09-21T12:53:28.232Z,0.60
2022-09-21T12:56:09.498Z,0.55
2022-09-21T12:59:05.557Z,0.50
2022-09-21T13:01:43.392Z,0.70
2022-09-21T13:04:34.344Z,0.60
2022-09-21T13:07:21.493Z,0.47
2022-09-21T13:09:51.604Z,0.68
2022-09-21T13:12:23.971Z,0.68
2022-09-21T13:14:55.683Z,0.50
2022-09-21T13:17:28.889Z,0.60
2022-09-21T13:19:59.803Z,0.52
2022-09-21T13:22:31.294Z,0.50
2022-09-21T13:25:03.045Z,3.83
2022-09-21T13:28:04.191Z,0.80
2022-09-21T13:30:36.165Z,0.68
2022-09-21T13:33:26.372Z,0.65
2022-09-21T13:36:06.074Z,0.70
2022-09-21T13:38:37.349Z,0.60
2022-09-21T13:41:35.447Z,0.68
2022-09-21T13:44:41.421Z,0.70
2022-09-21T13:47:11.321Z,0.70
2022-09-21T13:49:53.942Z,0.80
2022-09-21T13:52:32.560Z,0.68
2022-09-21T13:55:04.061Z,0.68
2022-09-21T13:57:37.837Z,0.75
2022-09-21T14:00:40.487Z,0.70
2022-09-21T14:05:51.760Z,0.70
2022-09-21T17:10:36.649Z,0.83
2022-09-21T17:13:08.637Z,0.70
2022-09-21T17:15:41.289Z,0.87
2022-09-21T17:18:11.603Z,0.87
2022-09-21T17:20:41.817Z,0.60
2022-09-21T17:23:10.146Z,0.60
2022-09-21T17:25:38.354Z,0.70
2022-09-21T17:28:25.997Z,2.33
2022-09-21T17:30:55.604Z,3.87
2022-09-21T17:33:25.310Z,1.00
2022-09-21T17:35:55.634Z,0.90
2022-09-21T17:38:23.507Z,1.10
2022-09-21T17:43:39.244Z,1.60
2022-09-21T17:46:14.399Z,3.37
2022-09-21T17:48:42.892Z,1.60
2022-09-21T17:56:23.311Z,0.90
2022-09-21T17:58:57.939Z,1.20
2022-09-21T18:01:34.815Z,0.97
2022-09-21T18:04:03.538Z,0.97
2022-09-21T18:06:31.931Z,1.03
2022-09-21T18:09:00.178Z,0.87
2022-09-21T18:11:47.613Z,0.90
2022-09-21T18:14:25.396Z,1.20
2022-09-21T18:17:06.414Z,1.43
2022-09-21T18:19:45.358Z,1.43
2022-09-21T18:22:20.045Z,1.30
2022-09-21T18:24:48.557Z,1.40
2022-09-21T18:27:19.241Z,1.20
2022-09-21T18:29:47.559Z,0.93
2022-09-21T18:32:39.530Z,1.03
2022-09-21T18:35:28.237Z,1.10
2022-09-21T18:38:05.680Z,1.10
2022-09-21T18:40:40.037Z,1.10
2022-09-21T18:43:22.610Z,1.20
2022-09-21T18:46:01.814Z,1.37
2022-09-21T18:48:42.034Z,7.03
2022-09-21T18:51:19.073Z,5.80
2022-09-21T18:53:52.110Z,3.60
2022-09-21T18:56:20.408Z,3.63
2022-09-21T18:58:49.619Z,4.50
2022-09-21T19:01:20.108Z,3.30
2022-09-21T19:03:57.878Z,3.63
2022-09-21T19:06:37.486Z,6.03
2022-09-21T19:09:17.939Z,8.87
2022-09-21T19:11:52.915Z,5.37
2022-09-21T19:14:27.902Z,4.57
2022-09-21T19:17:07.610Z,4.00
2022-09-21T19:19:45.527Z,2.87
2022-09-21T19:22:17.182Z,3.83
2022-09-21T19:24:57.213Z,4.73
2022-09-21T19:27:34.233Z,3.00
2022-09-21T19:30:09.366Z,2.27
2022-09-21T19:32:41.928Z,2.20
2022-09-21T19:35:21.700Z,1.90
2022-09-21T19:37:50.807Z,6.60
2022-09-21T19:40:20.282Z,2.77
2022-09-21T19:43:00.096Z,3.50
2022-09-21T19:45:33.071Z,4.20
2022-09-21T19:48:05.699Z,3.10
2022-09-21T19:50:41.549Z,2.97
2022-09-21T19:53:29.824Z,4.73
2022-09-21T19:56:16.364Z,2.23
2022-09-21T19:59:02.188Z,3.00
2022-09-21T20:01:31.308Z,4.07
2022-09-21T20:03:59.565Z,2.97
2022-09-21T20:06:36.288Z,2.03
2022-09-21T20:09:12.270Z,1.60
2022-09-21T20:11:47.114Z,1.57
2022-09-21T20:14:31.379Z,1.73
2022-09-21T20:17:02.097Z,2.00
2022-09-21T20:19:38.906Z,3.27
2022-09-21T20:22:15.028Z,6.00
2022-09-21T20:24:51.865Z,2.30
2022-09-21T20:27:30.234Z,2.80
2022-09-21T20:29:58.090Z,3.60
2022-09-21T20:32:25.956Z,7.13
2022-09-21T20:34:54.128Z,8.17
2022-09-21T20:37:23.638Z,9.87
2022-09-21T20:39:51.715Z,9.17
2022-09-21T20:42:23.346Z,8.40
2022-09-21T20:44:51.272Z,8.07
2022-09-21T20:47:19.888Z,6.97
2022-09-21T20:49:48.265Z,6.23
2022-09-21T20:52:17.610Z,5.37
2022-09-21T20:54:49.561Z,5.50
2022-09-21T20:57:17.828Z,4.73
2022-09-21T20:59:45.728Z,4.27
2022-09-21T21:02:16.467Z,4.40
2022-09-21T21:04:44.391Z,4.13
2022-09-21T21:07:12.733Z,4.90
2022-09-21T21:09:40.915Z,3.80
2022-09-21T21:12:10.752Z,4.07
2022-09-21T21:14:38.564Z,3.70
2022-09-21T21:17:06.641Z,4.07
2022-09-21T21:19:34.743Z,3.80
2022-09-21T21:22:02.627Z,3.40
2022-09-21T21:24:43.560Z,2.70
2022-09-21T21:27:16.263Z,2.47
2022-09-21T21:29:46.036Z,2.43
2022-09-21T21:32:14.422Z,2.47
2022-09-21T21:34:42.615Z,2.33
2022-09-21T21:37:10.966Z,3.80
2022-09-21T21:39:38.764Z,3.57
2022-09-21T21:42:06.956Z,6.17
2022-09-21T21:44:36.137Z,6.43
2022-09-21T21:47:27.412Z,4.53
2022-09-21T21:49:52.083Z,3.23
2022-09-21T21:52:19.984Z,2.83
2022-09-21T21:54:47.776Z,2.60
2022-09-21T21:57:15.578Z,2.77
2022-09-21T21:59:44.771Z,2.80
2022-09-21T22:02:12.676Z,2.77
2022-09-21T22:04:40.915Z,3.00
2022-09-21T22:07:08.781Z,2.97
2022-09-21T22:09:36.629Z,2.50
2022-09-21T22:12:04.676Z,2.90
2022-09-21T22:14:32.520Z,3.27
2022-09-21T22:17:01.771Z,3.30
2022-09-21T22:19:29.663Z,3.43
2022-09-21T22:21:57.647Z,3.10
2022-09-21T22:24:25.491Z,2.43
2022-09-21T22:26:53.324Z,2.50
2022-09-21T22:29:21.261Z,2.57
2022-09-21T22:31:50.344Z,2.50
2022-09-21T22:34:20.182Z,2.10
2022-09-21T22:36:48.024Z,2.50
2022-09-21T22:39:15.840Z,2.70
2022-09-21T22:41:44.232Z,2.27
2022-09-21T22:44:12.460Z,2.37
2022-09-21T22:46:40.931Z,2.97
2022-09-21T22:49:09.106Z,2.30
2022-09-21T22:51:38.803Z,2.40
2022-09-21T22:54:07.004Z,2.60
2022-09-21T22:56:35.688Z,2.13
2022-09-21T22:59:05.821Z,2.10
2022-09-21T23:01:35.293Z,2.10
2022-09-21T23:04:05.150Z,1.93
2022-09-21T23:06:34.381Z,1.80
2022-09-21T23:09:09.383Z,2.13
2022-09-21T23:11:39.112Z,2.67
2022-09-21T23:14:07.000Z,2.20
2022-09-21T23:16:35.079Z,2.10
2022-09-21T23:19:03.088Z,2.10
2022-09-21T23:21:31.800Z,2.27
2022-09-21T23:24:01.844Z,2.40
2022-09-21T23:26:33.975Z,2.50
2022-09-21T23:29:05.391Z,2.17
2022-09-21T23:31:33.859Z,2.30
2022-09-21T23:34:07.286Z,2.37
2022-09-21T23:36:36.003Z,2.33
2022-09-21T23:39:05.205Z,2.60
2022-09-21T23:41:36.658Z,3.10
2022-09-21T23:44:04.966Z,2.30
2022-09-21T23:46:35.104Z,2.53
2022-09-21T23:49:03.079Z,2.40
2022-09-21T23:51:31.206Z,2.30
2022-09-21T23:53:59.257Z,2.27
2022-09-21T23:56:27.159Z,2.50
2022-09-21T23:58:56.666Z,2.60
